sensor_id;sensor_type;location;lat;lon;timestamp;temperature;humidity
36990;DHT22;22898;52.102;5.776;2024-01-06T00:02:16;9.00;99.90
36990;DHT22;22898;52.102;5.776;2024-01-06T00:04:42;9.10;99.90
36990;DHT22;22898;52.102;5.776;2024-01-06T00:07:07;9.00;99.90
36990;DHT22;22898;52.102;5.776;2024-01-06T00:09:33;9.00;99.90
36990;DHT22;22898;52.102;5.776;2024-01-06T00:11:58;8.70;99.90
36990;DHT22;22898;52.102;5.776;2024-01-06T00:14:24;8.80;99.90
36990;DHT22;22898;52.102;5.776;2024-01-06T00:16:50;9.30;99.90
36990;DHT22;22898;52.102;5.776;2024-01-06T00:19:15;9.10;99.90
36990;DHT22;22898;52.102;5.776;2024-01-06T00:21:43;8.80;99.90
36990;DHT22;22898;52.102;5.776;2024-01-06T00:24:09;8.70;99.90
36990;DHT22;22898;52.102;5.776;2024-01-06T00:26:35;9.00;99.90
36990;DHT22;22898;52.102;5.776;2024-01-06T00:29:00;9.50;99.90
36990;DHT22;22898;52.102;5.776;2024-01-06T00:31:26;9.50;99.90
36990;DHT22;22898;52.102;5.776;2024-01-06T00:33:51;9.00;99.90
36990;DHT22;22898;52.102;5.776;2024-01-06T00:36:17;8.60;99.90
36990;DHT22;22898;52.102;5.776;2024-01-06T00:38:43;8.30;99.90
36990;DHT22;22898;52.102;5.776;2024-01-06T00:41:09;8.30;99.90
36990;DHT22;22898;52.102;5.776;2024-01-06T00:43:37;8.20;99.90
36990;DHT22;22898;52.102;5.776;2024-01-06T00:46:03;8.80;99.90
36990;DHT22;22898;52.102;5.776;2024-01-06T00:48:28;9.40;99.90
36990;DHT22;22898;52.102;5.776;2024-01-06T00:50:54;9.80;99.90
36990;DHT22;22898;52.102;5.776;2024-01-06T00:53:21;10.30;99.90
36990;DHT22;22898;52.102;5.776;2024-01-06T00:55:46;11.00;99.90
36990;DHT22;22898;52.102;5.776;2024-01-06T00:58:12;11.30;99.90
36990;DHT22;22898;52.102;5.776;2024-01-06T01:00:38;11.20;99.90
36990;DHT22;22898;52.102;5.776;2024-01-06T01:03:04;11.30;99.90
36990;DHT22;22898;52.102;5.776;2024-01-06T01:05:30;10.10;99.90
36990;DHT22;22898;52.102;5.776;2024-01-06T01:07:55;9.00;99.90
36990;DHT22;22898;52.102;5.776;2024-01-06T01:10:21;8.90;99.90
36990;DHT22;22898;52.102;5.776;2024-01-06T01:12:47;8.60;99.90
36990;DHT22;22898;52.102;5.776;2024-01-06T01:15:12;8.70;99.90
36990;DHT22;22898;52.102;5.776;2024-01-06T01:17:38;8.90;99.90
36990;DHT22;22898;52.102;5.776;2024-01-06T01:20:04;8.00;99.90
36990;DHT22;22898;52.102;5.776;2024-01-06T01:22:30;7.90;99.90
36990;DHT22;22898;52.102;5.776;2024-01-06T01:24:56;8.10;99.90
36990;DHT22;22898;52.102;5.776;2024-01-06T01:27:21;8.50;99.90
36990;DHT22;22898;52.102;5.776;2024-01-06T01:29:47;8.80;99.90
36990;DHT22;22898;52.102;5.776;2024-01-06T01:32:13;9.00;99.90
36990;DHT22;22898;52.102;5.776;2024-01-06T01:34:39;9.10;99.90
36990;DHT22;22898;52.102;5.776;2024-01-06T01:37:05;9.30;99.90
36990;DHT22;22898;52.102;5.776;2024-01-06T01:39:30;9.30;99.90
36990;DHT22;22898;52.102;5.776;2024-01-06T01:41:56;8.60;99.90
36990;DHT22;22898;52.102;5.776;2024-01-06T01:44:22;8.80;99.90
36990;DHT22;22898;52.102;5.776;2024-01-06T01:46:48;8.60;99.90
36990;DHT22;22898;52.102;5.776;2024-01-06T01:49:13;8.70;99.90
36990;DHT22;22898;52.102;5.776;2024-01-06T01:51:39;8.20;99.90
36990;DHT22;22898;52.102;5.776;2024-01-06T01:54:06;8.10;99.90
36990;DHT22;22898;52.102;5.776;2024-01-06T01:56:32;8.40;99.90
36990;DHT22;22898;52.102;5.776;2024-01-06T01:59:09;8.70;99.90
36990;DHT22;22898;52.102;5.776;2024-01-06T02:01:35;9.00;99.90
36990;DHT22;22898;52.102;5.776;2024-01-06T02:04:01;9.60;99.90
36990;DHT22;22898;52.102;5.776;2024-01-06T02:06:27;10.30;99.90
36990;DHT22;22898;52.102;5.776;2024-01-06T02:08:53;10.20;99.90
36990;DHT22;22898;52.102;5.776;2024-01-06T02:11:19;9.70;99.90
36990;DHT22;22898;52.102;5.776;2024-01-06T02:13:45;9.70;99.90
36990;DHT22;22898;52.102;5.776;2024-01-06T02:16:10;9.20;99.90
36990;DHT22;22898;52.102;5.776;2024-01-06T02:18:36;8.50;99.90
36990;DHT22;22898;52.102;5.776;2024-01-06T02:21:02;8.80;99.90
36990;DHT22;22898;52.102;5.776;2024-01-06T02:23:28;8.30;99.90
36990;DHT22;22898;52.102;5.776;2024-01-06T02:25:55;8.10;99.90
36990;DHT22;22898;52.102;5.776;2024-01-06T02:28:21;8.20;99.90
36990;DHT22;22898;52.102;5.776;2024-01-06T02:30:47;8.30;99.90
36990;DHT22;22898;52.102;5.776;2024-01-06T02:33:13;8.60;99.90
36990;DHT22;22898;52.102;5.776;2024-01-06T02:35:39;8.30;99.90
36990;DHT22;22898;52.102;5.776;2024-01-06T02:38:06;8.10;99.90
36990;DHT22;22898;52.102;5.776;2024-01-06T02:40:31;8.00;99.90
36990;DHT22;22898;52.102;5.776;2024-01-06T02:42:58;7.80;99.90
36990;DHT22;22898;52.102;5.776;2024-01-06T02:45:24;8.10;99.90
36990;DHT22;22898;52.102;5.776;2024-01-06T02:47:50;8.10;99.90
36990;DHT22;22898;52.102;5.776;2024-01-06T02:50:16;7.80;99.90
36990;DHT22;22898;52.102;5.776;2024-01-06T02:52:43;7.60;99.90
36990;DHT22;22898;52.102;5.776;2024-01-06T02:55:09;7.90;99.90
36990;DHT22;22898;52.102;5.776;2024-01-06T02:57:35;8.20;99.90
36990;DHT22;22898;52.102;5.776;2024-01-06T03:00:01;8.50;99.90
36990;DHT22;22898;52.102;5.776;2024-01-06T03:02:27;8.90;99.90
36990;DHT22;22898;52.102;5.776;2024-01-06T03:04:53;9.00;99.90
36990;DHT22;22898;52.102;5.776;2024-01-06T03:07:18;8.80;99.90
36990;DHT22;22898;52.102;5.776;2024-01-06T03:09:44;8.40;99.90
36990;DHT22;22898;52.102;5.776;2024-01-06T03:12:09;8.60;99.90
36990;DHT22;22898;52.102;5.776;2024-01-06T03:14:35;8.80;99.90
36990;DHT22;22898;52.102;5.776;2024-01-06T03:17:01;9.10;99.90
36990;DHT22;22898;52.102;5.776;2024-01-06T03:19:28;9.40;99.90
36990;DHT22;22898;52.102;5.776;2024-01-06T03:21:54;9.70;99.90
36990;DHT22;22898;52.102;5.776;2024-01-06T03:24:21;9.80;99.90
36990;DHT22;22898;52.102;5.776;2024-01-06T03:26:47;10.20;99.90
36990;DHT22;22898;52.102;5.776;2024-01-06T03:29:12;9.20;99.90
36990;DHT22;22898;52.102;5.776;2024-01-06T03:31:42;9.40;99.90
36990;DHT22;22898;52.102;5.776;2024-01-06T03:34:08;10.00;99.90
36990;DHT22;22898;52.102;5.776;2024-01-06T03:36:34;10.30;99.90
36990;DHT22;22898;52.102;5.776;2024-01-06T03:39:00;9.90;99.90
36990;DHT22;22898;52.102;5.776;2024-01-06T03:41:26;9.60;99.90
36990;DHT22;22898;52.102;5.776;2024-01-06T03:43:51;9.50;99.90
36990;DHT22;22898;52.102;5.776;2024-01-06T03:46:17;9.20;99.90
36990;DHT22;22898;52.102;5.776;2024-01-06T03:48:42;8.90;99.90
36990;DHT22;22898;52.102;5.776;2024-01-06T03:51:10;8.10;99.90
36990;DHT22;22898;52.102;5.776;2024-01-06T03:53:35;8.30;99.90
36990;DHT22;22898;52.102;5.776;2024-01-06T03:56:02;8.50;99.90
36990;DHT22;22898;52.102;5.776;2024-01-06T03:58:28;8.40;99.90
36990;DHT22;22898;52.102;5.776;2024-01-06T04:00:54;8.10;99.90
36990;DHT22;22898;52.102;5.776;2024-01-06T04:03:20;8.20;99.90
36990;DHT22;22898;52.102;5.776;2024-01-06T04:05:45;8.00;99.90
36990;DHT22;22898;52.102;5.776;2024-01-06T04:08:11;7.70;99.90
36990;DHT22;22898;52.102;5.776;2024-01-06T04:10:37;7.00;99.90
36990;DHT22;22898;52.102;5.776;2024-01-06T04:13:02;6.80;99.90
36990;DHT22;22898;52.102;5.776;2024-01-06T04:15:28;6.60;99.90
36990;DHT22;22898;52.102;5.776;2024-01-06T04:17:54;6.60;99.90
36990;DHT22;22898;52.102;5.776;2024-01-06T04:20:20;6.70;99.90
36990;DHT22;22898;52.102;5.776;2024-01-06T04:22:45;7.00;99.90
36990;DHT22;22898;52.102;5.776;2024-01-06T04:25:11;7.60;99.90
36990;DHT22;22898;52.102;5.776;2024-01-06T04:27:37;7.70;99.90
36990;DHT22;22898;52.102;5.776;2024-01-06T04:30:02;7.40;99.90
36990;DHT22;22898;52.102;5.776;2024-01-06T04:32:29;7.60;99.90
36990;DHT22;22898;52.102;5.776;2024-01-06T04:34:54;7.60;99.90
36990;DHT22;22898;52.102;5.776;2024-01-06T04:37:22;7.70;99.90
36990;DHT22;22898;52.102;5.776;2024-01-06T04:39:47;7.70;99.90
36990;DHT22;22898;52.102;5.776;2024-01-06T04:42:13;7.80;99.90
36990;DHT22;22898;52.102;5.776;2024-01-06T04:44:39;8.10;99.90
36990;DHT22;22898;52.102;5.776;2024-01-06T04:47:05;8.40;99.90
36990;DHT22;22898;52.102;5.776;2024-01-06T04:49:30;8.70;99.90
36990;DHT22;22898;52.102;5.776;2024-01-06T04:51:56;9.10;99.90
36990;DHT22;22898;52.102;5.776;2024-01-06T04:54:22;8.80;99.90
36990;DHT22;22898;52.102;5.776;2024-01-06T04:56:47;8.20;99.90
36990;DHT22;22898;52.102;5.776;2024-01-06T04:59:13;7.60;99.90
36990;DHT22;22898;52.102;5.776;2024-01-06T05:01:39;7.30;99.90
36990;DHT22;22898;52.102;5.776;2024-01-06T05:04:04;6.70;99.90
36990;DHT22;22898;52.102;5.776;2024-01-06T05:06:30;6.90;99.90
36990;DHT22;22898;52.102;5.776;2024-01-06T05:08:56;7.20;99.90
36990;DHT22;22898;52.102;5.776;2024-01-06T05:11:22;7.00;99.90
36990;DHT22;22898;52.102;5.776;2024-01-06T05:13:48;6.80;99.90
36990;DHT22;22898;52.102;5.776;2024-01-06T05:16:13;6.80;99.90
36990;DHT22;22898;52.102;5.776;2024-01-06T05:18:39;6.60;99.90
36990;DHT22;22898;52.102;5.776;2024-01-06T05:21:05;6.10;99.90
36990;DHT22;22898;52.102;5.776;2024-01-06T05:23:31;6.40;99.90
36990;DHT22;22898;52.102;5.776;2024-01-06T05:25:56;7.00;99.90
36990;DHT22;22898;52.102;5.776;2024-01-06T05:28:22;7.00;99.90
36990;DHT22;22898;52.102;5.776;2024-01-06T05:30:48;6.90;99.90
36990;DHT22;22898;52.102;5.776;2024-01-06T05:33:13;6.90;99.90
36990;DHT22;22898;52.102;5.776;2024-01-06T05:35:40;6.30;99.90
36990;DHT22;22898;52.102;5.776;2024-01-06T05:38:06;6.40;99.90
36990;DHT22;22898;52.102;5.776;2024-01-06T05:40:32;6.90;99.90
36990;DHT22;22898;52.102;5.776;2024-01-06T05:42:57;7.00;99.90
36990;DHT22;22898;52.102;5.776;2024-01-06T05:45:23;6.50;99.90
36990;DHT22;22898;52.102;5.776;2024-01-06T05:47:49;6.40;99.90
36990;DHT22;22898;52.102;5.776;2024-01-06T05:50:17;6.90;99.90
36990;DHT22;22898;52.102;5.776;2024-01-06T05:52:44;6.80;99.90
36990;DHT22;22898;52.102;5.776;2024-01-06T05:55:09;6.60;99.90
36990;DHT22;22898;52.102;5.776;2024-01-06T05:57:35;6.70;99.90
36990;DHT22;22898;52.102;5.776;2024-01-06T06:00:01;7.20;99.90
36990;DHT22;22898;52.102;5.776;2024-01-06T06:02:27;7.10;99.90
36990;DHT22;22898;52.102;5.776;2024-01-06T06:04:53;6.80;99.90
36990;DHT22;22898;52.102;5.776;2024-01-06T06:07:19;6.90;99.90
36990;DHT22;22898;52.102;5.776;2024-01-06T06:09:45;7.00;99.90
36990;DHT22;22898;52.102;5.776;2024-01-06T06:12:13;6.80;99.90
36990;DHT22;22898;52.102;5.776;2024-01-06T06:14:39;6.30;99.90
36990;DHT22;22898;52.102;5.776;2024-01-06T06:17:05;6.40;99.90
36990;DHT22;22898;52.102;5.776;2024-01-06T06:19:31;6.50;99.90
36990;DHT22;22898;52.102;5.776;2024-01-06T06:21:57;6.30;99.90
36990;DHT22;22898;52.102;5.776;2024-01-06T06:24:23;6.30;99.90
36990;DHT22;22898;52.102;5.776;2024-01-06T06:26:48;6.20;99.90
36990;DHT22;22898;52.102;5.776;2024-01-06T06:29:14;6.00;99.90
36990;DHT22;22898;52.102;5.776;2024-01-06T06:31:39;6.30;99.90
36990;DHT22;22898;52.102;5.776;2024-01-06T06:34:05;5.80;99.90
36990;DHT22;22898;52.102;5.776;2024-01-06T06:36:31;5.50;99.90
36990;DHT22;22898;52.102;5.776;2024-01-06T06:38:56;5.30;99.90
36990;DHT22;22898;52.102;5.776;2024-01-06T06:41:24;5.90;99.90
36990;DHT22;22898;52.102;5.776;2024-01-06T06:43:50;6.80;99.90
36990;DHT22;22898;52.102;5.776;2024-01-06T06:46:16;7.10;99.90
36990;DHT22;22898;52.102;5.776;2024-01-06T06:48:42;7.30;99.90
36990;DHT22;22898;52.102;5.776;2024-01-06T06:51:08;7.90;99.90
36990;DHT22;22898;52.102;5.776;2024-01-06T06:53:33;8.00;99.90
36990;DHT22;22898;52.102;5.776;2024-01-06T06:55:59;7.00;99.90
36990;DHT22;22898;52.102;5.776;2024-01-06T06:58:25;7.30;99.90
36990;DHT22;22898;52.102;5.776;2024-01-06T07:00:50;7.30;99.90
36990;DHT22;22898;52.102;5.776;2024-01-06T07:03:16;6.80;99.90
36990;DHT22;22898;52.102;5.776;2024-01-06T07:05:42;6.90;99.90
36990;DHT22;22898;52.102;5.776;2024-01-06T07:08:07;6.50;99.90
36990;DHT22;22898;52.102;5.776;2024-01-06T07:10:33;6.80;99.90
36990;DHT22;22898;52.102;5.776;2024-01-06T07:12:59;6.70;99.90
36990;DHT22;22898;52.102;5.776;2024-01-06T07:15:24;6.10;99.90
36990;DHT22;22898;52.102;5.776;2024-01-06T07:17:50;6.90;99.90
36990;DHT22;22898;52.102;5.776;2024-01-06T07:20:16;7.10;99.90
36990;DHT22;22898;52.102;5.776;2024-01-06T07:22:41;7.40;99.90
36990;DHT22;22898;52.102;5.776;2024-01-06T07:25:07;8.00;99.90
36990;DHT22;22898;52.102;5.776;2024-01-06T07:27:33;8.10;99.90
36990;DHT22;22898;52.102;5.776;2024-01-06T07:29:58;8.70;99.90
36990;DHT22;22898;52.102;5.776;2024-01-06T07:32:24;8.80;99.90
36990;DHT22;22898;52.102;5.776;2024-01-06T07:34:50;8.60;99.90
36990;DHT22;22898;52.102;5.776;2024-01-06T07:37:16;8.10;99.90
36990;DHT22;22898;52.102;5.776;2024-01-06T07:39:42;8.60;99.90
36990;DHT22;22898;52.102;5.776;2024-01-06T07:42:08;8.80;99.90
36990;DHT22;22898;52.102;5.776;2024-01-06T07:44:34;8.50;99.90
36990;DHT22;22898;52.102;5.776;2024-01-06T07:47:00;8.60;99.90
36990;DHT22;22898;52.102;5.776;2024-01-06T07:49:27;8.50;99.90
36990;DHT22;22898;52.102;5.776;2024-01-06T07:51:53;8.40;99.90
36990;DHT22;22898;52.102;5.776;2024-01-06T07:54:19;7.70;99.90
36990;DHT22;22898;52.102;5.776;2024-01-06T07:56:44;7.80;99.90
36990;DHT22;22898;52.102;5.776;2024-01-06T07:59:10;7.90;99.90
36990;DHT22;22898;52.102;5.776;2024-01-06T08:01:36;7.60;99.90
36990;DHT22;22898;52.102;5.776;2024-01-06T08:04:02;6.60;99.90
36990;DHT22;22898;52.102;5.776;2024-01-06T08:06:28;7.00;99.90
36990;DHT22;22898;52.102;5.776;2024-01-06T08:08:53;7.40;99.90
36990;DHT22;22898;52.102;5.776;2024-01-06T08:11:20;7.70;99.90
36990;DHT22;22898;52.102;5.776;2024-01-06T08:13:46;7.80;99.90
36990;DHT22;22898;52.102;5.776;2024-01-06T08:16:12;8.00;99.90
36990;DHT22;22898;52.102;5.776;2024-01-06T08:18:38;7.90;99.90
36990;DHT22;22898;52.102;5.776;2024-01-06T08:21:04;7.80;99.90
36990;DHT22;22898;52.102;5.776;2024-01-06T08:23:29;7.60;99.90
36990;DHT22;22898;52.102;5.776;2024-01-06T08:25:55;8.20;99.90
36990;DHT22;22898;52.102;5.776;2024-01-06T08:28:21;7.40;99.90
36990;DHT22;22898;52.102;5.776;2024-01-06T08:30:49;7.30;99.90
36990;DHT22;22898;52.102;5.776;2024-01-06T08:33:14;7.20;99.90
36990;DHT22;22898;52.102;5.776;2024-01-06T08:35:40;7.30;99.90
36990;DHT22;22898;52.102;5.776;2024-01-06T08:38:06;7.70;99.90
36990;DHT22;22898;52.102;5.776;2024-01-06T08:40:33;7.90;99.90
36990;DHT22;22898;52.102;5.776;2024-01-06T08:42:59;8.60;99.90
36990;DHT22;22898;52.102;5.776;2024-01-06T08:45:24;9.00;99.90
36990;DHT22;22898;52.102;5.776;2024-01-06T08:47:50;8.70;99.90
36990;DHT22;22898;52.102;5.776;2024-01-06T08:50:15;7.80;99.90
36990;DHT22;22898;52.102;5.776;2024-01-06T08:52:41;8.00;99.90
36990;DHT22;22898;52.102;5.776;2024-01-06T08:55:07;8.40;99.90
36990;DHT22;22898;52.102;5.776;2024-01-06T08:57:33;8.60;99.90
36990;DHT22;22898;52.102;5.776;2024-01-06T08:59:58;8.30;99.90
36990;DHT22;22898;52.102;5.776;2024-01-06T09:02:24;6.90;99.90
36990;DHT22;22898;52.102;5.776;2024-01-06T09:04:49;6.70;99.90
36990;DHT22;22898;52.102;5.776;2024-01-06T09:07:15;6.30;99.90
36990;DHT22;22898;52.102;5.776;2024-01-06T09:09:42;6.10;99.90
36990;DHT22;22898;52.102;5.776;2024-01-06T09:12:08;6.10;99.90
36990;DHT22;22898;52.102;5.776;2024-01-06T09:14:37;6.10;99.90
36990;DHT22;22898;52.102;5.776;2024-01-06T09:17:03;6.40;99.90
36990;DHT22;22898;52.102;5.776;2024-01-06T09:19:29;7.10;99.90
36990;DHT22;22898;52.102;5.776;2024-01-06T09:21:56;7.30;99.90
36990;DHT22;22898;52.102;5.776;2024-01-06T09:24:22;7.90;99.90
36990;DHT22;22898;52.102;5.776;2024-01-06T09:26:48;7.70;99.90
36990;DHT22;22898;52.102;5.776;2024-01-06T09:29:15;8.10;99.90
36990;DHT22;22898;52.102;5.776;2024-01-06T09:31:41;8.50;99.90
36990;DHT22;22898;52.102;5.776;2024-01-06T09:34:09;8.90;99.90
36990;DHT22;22898;52.102;5.776;2024-01-06T09:36:35;8.10;99.90
36990;DHT22;22898;52.102;5.776;2024-01-06T09:39:01;8.20;99.90
36990;DHT22;22898;52.102;5.776;2024-01-06T09:41:27;7.90;99.90
36990;DHT22;22898;52.102;5.776;2024-01-06T09:43:53;7.70;99.90
36990;DHT22;22898;52.102;5.776;2024-01-06T09:46:24;8.00;99.90
36990;DHT22;22898;52.102;5.776;2024-01-06T09:48:52;8.10;99.90
36990;DHT22;22898;52.102;5.776;2024-01-06T09:51:22;8.50;99.90
36990;DHT22;22898;52.102;5.776;2024-01-06T09:54:03;8.80;99.90
36990;DHT22;22898;52.102;5.776;2024-01-06T09:56:32;9.20;99.90
36990;DHT22;22898;52.102;5.776;2024-01-06T09:58:58;9.30;99.90
36990;DHT22;22898;52.102;5.776;2024-01-06T10:01:23;9.10;99.90
36990;DHT22;22898;52.102;5.776;2024-01-06T10:03:49;9.00;99.90
36990;DHT22;22898;52.102;5.776;2024-01-06T10:06:15;8.90;99.90
36990;DHT22;22898;52.102;5.776;2024-01-06T10:08:48;8.30;99.90
36990;DHT22;22898;52.102;5.776;2024-01-06T10:11:14;8.00;99.90
36990;DHT22;22898;52.102;5.776;2024-01-06T10:13:40;8.00;99.90
36990;DHT22;22898;52.102;5.776;2024-01-06T10:16:06;8.30;99.90
36990;DHT22;22898;52.102;5.776;2024-01-06T10:18:32;8.60;99.90
36990;DHT22;22898;52.102;5.776;2024-01-06T10:20:58;8.70;99.90
36990;DHT22;22898;52.102;5.776;2024-01-06T10:23:26;8.80;99.90
36990;DHT22;22898;52.102;5.776;2024-01-06T10:25:55;8.50;99.90
36990;DHT22;22898;52.102;5.776;2024-01-06T10:28:22;8.90;99.90
36990;DHT22;22898;52.102;5.776;2024-01-06T10:30:54;9.20;99.90
36990;DHT22;22898;52.102;5.776;2024-01-06T10:33:21;8.80;99.90
36990;DHT22;22898;52.102;5.776;2024-01-06T10:35:48;8.80;99.90
36990;DHT22;22898;52.102;5.776;2024-01-06T10:38:14;8.80;99.90
36990;DHT22;22898;52.102;5.776;2024-01-06T10:41:03;9.10;99.90
36990;DHT22;22898;52.102;5.776;2024-01-06T10:43:33;9.50;99.90
36990;DHT22;22898;52.102;5.776;2024-01-06T10:46:04;9.00;99.90
36990;DHT22;22898;52.102;5.776;2024-01-06T10:48:35;8.80;99.90
36990;DHT22;22898;52.102;5.776;2024-01-06T10:51:01;7.90;99.90
36990;DHT22;22898;52.102;5.776;2024-01-06T10:53:33;7.70;99.90
36990;DHT22;22898;52.102;5.776;2024-01-06T10:56:03;7.40;99.90
36990;DHT22;22898;52.102;5.776;2024-01-06T10:58:30;7.60;99.90
36990;DHT22;22898;52.102;5.776;2024-01-06T11:01:00;7.10;99.90
36990;DHT22;22898;52.102;5.776;2024-01-06T11:03:28;7.70;99.90
36990;DHT22;22898;52.102;5.776;2024-01-06T11:05:54;8.20;99.90
36990;DHT22;22898;52.102;5.776;2024-01-06T11:08:21;8.20;99.90
36990;DHT22;22898;52.102;5.776;2024-01-06T11:10:47;7.40;99.90
36990;DHT22;22898;52.102;5.776;2024-01-06T11:13:21;7.00;99.90
36990;DHT22;22898;52.102;5.776;2024-01-06T11:15:49;7.40;99.90
36990;DHT22;22898;52.102;5.776;2024-01-06T11:18:35;8.10;99.90
36990;DHT22;22898;52.102;5.776;2024-01-06T11:21:23;8.40;99.90
36990;DHT22;22898;52.102;5.776;2024-01-06T11:24:18;8.90;99.90
36990;DHT22;22898;52.102;5.776;2024-01-06T11:26:45;8.40;99.90
36990;DHT22;22898;52.102;5.776;2024-01-06T11:29:14;8.20;99.90
36990;DHT22;22898;52.102;5.776;2024-01-06T11:31:40;8.40;99.90
36990;DHT22;22898;52.102;5.776;2024-01-06T11:34:18;8.70;99.90
36990;DHT22;22898;52.102;5.776;2024-01-06T11:36:48;8.80;99.90
36990;DHT22;22898;52.102;5.776;2024-01-06T11:39:35;9.20;99.90
36990;DHT22;22898;52.102;5.776;2024-01-06T11:42:04;9.40;99.90
36990;DHT22;22898;52.102;5.776;2024-01-06T11:44:34;9.10;99.90
36990;DHT22;22898;52.102;5.776;2024-01-06T11:47:00;9.00;99.90
36990;DHT22;22898;52.102;5.776;2024-01-06T11:49:28;9.20;99.90
36990;DHT22;22898;52.102;5.776;2024-01-06T11:51:53;9.30;99.90
36990;DHT22;22898;52.102;5.776;2024-01-06T11:54:21;9.30;99.90
36990;DHT22;22898;52.102;5.776;2024-01-06T11:56:46;9.80;99.90
36990;DHT22;22898;52.102;5.776;2024-01-06T11:59:12;9.30;99.90
36990;DHT22;22898;52.102;5.776;2024-01-06T12:01:38;9.40;99.90
36990;DHT22;22898;52.102;5.776;2024-01-06T12:04:05;9.50;99.90
36990;DHT22;22898;52.102;5.776;2024-01-06T12:06:33;8.90;99.90
36990;DHT22;22898;52.102;5.776;2024-01-06T12:09:06;9.30;99.90
36990;DHT22;22898;52.102;5.776;2024-01-06T12:11:32;9.50;99.90
36990;DHT22;22898;52.102;5.776;2024-01-06T12:13:57;9.50;99.90
36990;DHT22;22898;52.102;5.776;2024-01-06T12:16:24;8.60;99.90
36990;DHT22;22898;52.102;5.776;2024-01-06T12:18:56;8.40;99.90
36990;DHT22;22898;52.102;5.776;2024-01-06T12:21:23;8.80;99.90
36990;DHT22;22898;52.102;5.776;2024-01-06T12:23:49;8.70;99.90
36990;DHT22;22898;52.102;5.776;2024-01-06T12:26:16;8.80;99.90
36990;DHT22;22898;52.102;5.776;2024-01-06T12:28:44;8.90;99.90
36990;DHT22;22898;52.102;5.776;2024-01-06T12:31:10;8.90;99.90
36990;DHT22;22898;52.102;5.776;2024-01-06T12:33:41;8.40;99.90
36990;DHT22;22898;52.102;5.776;2024-01-06T12:36:07;8.50;99.90
36990;DHT22;22898;52.102;5.776;2024-01-06T12:38:34;8.70;99.90
36990;DHT22;22898;52.102;5.776;2024-01-06T12:41:00;9.00;99.90
36990;DHT22;22898;52.102;5.776;2024-01-06T12:43:26;8.60;99.90
36990;DHT22;22898;52.102;5.776;2024-01-06T12:45:52;9.00;99.90
36990;DHT22;22898;52.102;5.776;2024-01-06T12:48:18;9.10;99.90
36990;DHT22;22898;52.102;5.776;2024-01-06T12:50:44;8.10;99.90
36990;DHT22;22898;52.102;5.776;2024-01-06T12:53:10;7.80;99.90
36990;DHT22;22898;52.102;5.776;2024-01-06T12:55:37;7.90;99.90
36990;DHT22;22898;52.102;5.776;2024-01-06T12:58:03;6.80;99.90
36990;DHT22;22898;52.102;5.776;2024-01-06T13:00:29;6.80;99.90
36990;DHT22;22898;52.102;5.776;2024-01-06T13:02:55;7.20;99.90
36990;DHT22;22898;52.102;5.776;2024-01-06T13:05:21;7.20;99.90
36990;DHT22;22898;52.102;5.776;2024-01-06T13:07:48;7.40;99.90
36990;DHT22;22898;52.102;5.776;2024-01-06T13:10:14;7.50;99.90
36990;DHT22;22898;52.102;5.776;2024-01-06T13:12:40;6.80;99.90
36990;DHT22;22898;52.102;5.776;2024-01-06T13:15:06;6.30;99.90
36990;DHT22;22898;52.102;5.776;2024-01-06T13:17:36;6.60;99.90
36990;DHT22;22898;52.102;5.776;2024-01-06T13:20:03;6.80;99.90
36990;DHT22;22898;52.102;5.776;2024-01-06T13:22:28;6.50;99.90
36990;DHT22;22898;52.102;5.776;2024-01-06T13:24:54;6.80;99.90
36990;DHT22;22898;52.102;5.776;2024-01-06T13:27:20;7.40;99.90
36990;DHT22;22898;52.102;5.776;2024-01-06T13:29:45;7.30;99.90
36990;DHT22;22898;52.102;5.776;2024-01-06T13:32:11;7.10;99.90
36990;DHT22;22898;52.102;5.776;2024-01-06T13:34:39;6.90;99.90
36990;DHT22;22898;52.102;5.776;2024-01-06T13:37:04;7.20;99.90
36990;DHT22;22898;52.102;5.776;2024-01-06T13:39:32;7.10;99.90
36990;DHT22;22898;52.102;5.776;2024-01-06T13:41:58;7.60;99.90
36990;DHT22;22898;52.102;5.776;2024-01-06T13:44:23;8.00;99.90
36990;DHT22;22898;52.102;5.776;2024-01-06T13:46:49;7.70;99.90
36990;DHT22;22898;52.102;5.776;2024-01-06T13:49:17;7.20;99.90
36990;DHT22;22898;52.102;5.776;2024-01-06T13:51:43;7.40;99.90
36990;DHT22;22898;52.102;5.776;2024-01-06T13:54:12;7.30;99.90
36990;DHT22;22898;52.102;5.776;2024-01-06T13:56:38;7.30;99.90
36990;DHT22;22898;52.102;5.776;2024-01-06T13:59:03;7.60;99.90
36990;DHT22;22898;52.102;5.776;2024-01-06T14:01:29;7.40;99.90
36990;DHT22;22898;52.102;5.776;2024-01-06T14:03:55;7.20;99.90
36990;DHT22;22898;52.102;5.776;2024-01-06T14:06:27;7.20;99.90
36990;DHT22;22898;52.102;5.776;2024-01-06T14:08:58;7.80;99.90
36990;DHT22;22898;52.102;5.776;2024-01-06T14:11:25;7.40;99.90
36990;DHT22;22898;52.102;5.776;2024-01-06T14:13:55;7.00;99.90
36990;DHT22;22898;52.102;5.776;2024-01-06T14:16:21;7.20;99.90
36990;DHT22;22898;52.102;5.776;2024-01-06T14:18:47;7.70;99.90
36990;DHT22;22898;52.102;5.776;2024-01-06T14:21:12;7.90;99.90
36990;DHT22;22898;52.102;5.776;2024-01-06T14:23:43;7.00;99.90
36990;DHT22;22898;52.102;5.776;2024-01-06T14:26:09;7.30;99.90
36990;DHT22;22898;52.102;5.776;2024-01-06T14:28:35;7.20;99.90
36990;DHT22;22898;52.102;5.776;2024-01-06T14:31:01;7.00;99.90
36990;DHT22;22898;52.102;5.776;2024-01-06T14:33:27;6.70;99.90
36990;DHT22;22898;52.102;5.776;2024-01-06T14:35:53;6.30;99.90
36990;DHT22;22898;52.102;5.776;2024-01-06T14:38:19;6.10;99.90
36990;DHT22;22898;52.102;5.776;2024-01-06T14:40:44;6.80;99.90
36990;DHT22;22898;52.102;5.776;2024-01-06T14:43:10;7.30;99.90
36990;DHT22;22898;52.102;5.776;2024-01-06T14:45:36;7.00;99.90
36990;DHT22;22898;52.102;5.776;2024-01-06T14:48:02;7.10;99.90
36990;DHT22;22898;52.102;5.776;2024-01-06T14:50:27;7.40;99.90
36990;DHT22;22898;52.102;5.776;2024-01-06T14:52:53;7.80;99.90
36990;DHT22;22898;52.102;5.776;2024-01-06T14:55:19;7.40;99.90
36990;DHT22;22898;52.102;5.776;2024-01-06T14:57:45;7.30;99.90
36990;DHT22;22898;52.102;5.776;2024-01-06T15:00:11;7.60;99.90
36990;DHT22;22898;52.102;5.776;2024-01-06T15:02:37;7.70;99.90
36990;DHT22;22898;52.102;5.776;2024-01-06T15:05:04;8.10;99.90
36990;DHT22;22898;52.102;5.776;2024-01-06T15:07:30;8.20;99.90
36990;DHT22;22898;52.102;5.776;2024-01-06T15:10:02;8.50;99.90
36990;DHT22;22898;52.102;5.776;2024-01-06T15:12:29;8.50;99.90
36990;DHT22;22898;52.102;5.776;2024-01-06T15:14:55;8.80;99.90
36990;DHT22;22898;52.102;5.776;2024-01-06T15:17:24;8.30;99.90
36990;DHT22;22898;52.102;5.776;2024-01-06T15:19:49;7.50;99.90
36990;DHT22;22898;52.102;5.776;2024-01-06T15:22:16;7.50;99.90
36990;DHT22;22898;52.102;5.776;2024-01-06T15:24:42;8.00;99.90
36990;DHT22;22898;52.102;5.776;2024-01-06T15:27:13;8.30;99.90
36990;DHT22;22898;52.102;5.776;2024-01-06T15:29:39;8.60;99.90
36990;DHT22;22898;52.102;5.776;2024-01-06T15:32:05;8.70;99.90
36990;DHT22;22898;52.102;5.776;2024-01-06T15:34:30;8.30;99.90
36990;DHT22;22898;52.102;5.776;2024-01-06T15:36:56;8.10;99.90
36990;DHT22;22898;52.102;5.776;2024-01-06T15:39:22;7.30;99.90
36990;DHT22;22898;52.102;5.776;2024-01-06T15:41:47;7.50;99.90